Time,TemperatureF,DewpointF,PressureIn,WindDirection,WindDirectionDegrees,WindSpeedMPH,WindSpeedGustMPH,Humidity,HourlyPrecipIn,Conditions,Clouds,dailyrainin,SoftwareType,DateUTC
2013-05-30 10:52:00,75.0,69.0,30.01,West,262,0.0,6.0,81,0.00,,,0.00,,2013-05-30 14:52:00,
2013-05-30 11:01:00,75.0,69.0,30.01,West,262,0.0,6.0,81,0.00,,,0.00,,2013-05-30 15:01:00,
2013-05-30 11:11:00,75.0,69.0,30.01,West,262,0.0,6.0,81,0.00,,,0.00,,2013-05-30 15:11:00,
2013-05-30 11:22:00,75.0,69.0,30.01,West,262,0.0,6.0,81,0.00,,,0.00,,2013-05-30 15:22:00,
2013-05-30 11:33:00,75.0,69.0,30.01,West,262,0.0,6.0,81,0.00,,,0.00,,2013-05-30 15:33:00,
2013-05-30 11:42:00,75.0,69.0,30.01,West,262,0.0,6.0,81,0.00,,,0.00,,2013-05-30 15:42:00,
2013-05-30 11:53:00,75.0,69.0,30.01,West,262,0.0,6.0,81,0.00,,,0.00,,2013-05-30 15:53:00,
2013-05-30 12:03:00,75.0,69.0,30.01,West,262,0.0,6.0,81,0.00,,,0.00,,2013-05-30 16:03:00,
2013-05-30 12:12:00,75.0,69.0,30.01,West,262,0.0,6.0,81,0.00,,,0.00,,2013-05-30 16:12:00,
2013-05-30 12:23:00,75.0,69.0,30.01,West,262,0.0,6.0,81,0.00,,,0.00,,2013-05-30 16:23:00,
2013-05-30 12:33:00,75.0,69.0,30.01,West,262,0.0,6.0,81,0.00,,,0.00,,2013-05-30 16:33:00,
2013-05-30 12:42:00,79.0,73.0,30.04,East,96,10.0,11.0,81,0.00,,,0.00,,2013-05-30 16:42:00,
2013-05-30 12:53:00,79.0,73.0,30.04,East,96,10.0,11.0,81,0.00,,,0.00,,2013-05-30 16:53:00,
2013-05-30 13:02:00,79.0,73.0,30.03,NE,39,8.0,11.0,81,0.00,,,0.00,,2013-05-30 17:02:00,
2013-05-30 13:12:00,79.0,73.0,30.03,NE,39,8.0,11.0,81,0.00,,,0.00,,2013-05-30 17:12:00,
2013-05-30 13:22:00,80.0,72.0,30.03,North,8,7.0,7.0,76,0.00,,,0.00,,2013-05-30 17:22:00,
2013-05-30 13:32:00,79.0,72.0,30.03,ESE,118,8.0,8.0,79,0.00,,,0.00,,2013-05-30 17:32:00,
2013-05-30 13:42:00,79.0,72.0,30.03,ESE,118,8.0,8.0,79,0.00,,,0.00,,2013-05-30 17:42:00,
2013-05-30 13:52:00,80.0,71.0,30.03,East,87,9.0,9.0,75,0.00,,,0.00,,2013-05-30 17:52:00,
2013-05-30 14:02:00,81.0,72.0,30.03,East,93,11.0,13.0,75,0.00,,,0.00,,2013-05-30 18:02:00,
2013-05-30 14:11:00,81.0,72.0,30.03,East,93,11.0,13.0,75,0.00,,,0.00,,2013-05-30 18:11:00,
2013-05-30 14:22:00,80.0,73.0,30.03,ESE,115,9.0,9.0,79,0.00,,,0.00,,2013-05-30 18:22:00,
2013-05-30 14:32:00,79.0,73.0,30.03,East,97,8.0,8.0,81,0.00,,,0.00,,2013-05-30 18:32:00,
2013-05-30 14:42:00,79.0,73.0,30.03,East,97,8.0,8.0,81,0.00,,,0.00,,2013-05-30 18:42:00,
2013-05-30 14:52:00,80.0,73.0,30.02,SE,131,7.0,12.0,80,0.00,,,0.00,,2013-05-30 18:52:00,
2013-05-30 15:01:00,81.0,73.0,30.01,ESE,107,7.0,7.0,77,0.00,,,0.00,,2013-05-30 19:01:00,
2013-05-30 15:12:00,81.0,73.0,30.01,ESE,107,7.0,7.0,77,0.00,,,0.00,,2013-05-30 19:12:00,
2013-05-30 15:23:00,82.0,71.0,30.01,East,94,11.0,11.0,70,0.00,,,0.00,,2013-05-30 19:23:00,
2013-05-30 15:32:00,81.0,71.0,30.01,ENE,65,8.0,12.0,72,0.00,,,0.00,,2013-05-30 19:32:00,
2013-05-30 15:42:00,81.0,71.0,30.01,ENE,65,8.0,12.0,72,0.00,,,0.00,,2013-05-30 19:42:00,
2013-05-30 15:53:00,80.0,73.0,30.01,East,101,11.0,17.0,79,0.00,,,0.00,,2013-05-30 19:53:00,
2013-05-30 16:01:00,79.0,72.0,30.01,East,79,11.0,11.0,79,0.00,,,0.00,,2013-05-30 20:01:00,
2013-05-30 16:11:00,79.0,72.0,30.01,East,79,11.0,11.0,79,0.00,,,0.00,,2013-05-30 20:11:00,
2013-05-30 16:22:00,79.0,72.0,30.01,ESE,113,10.0,15.0,79,0.00,,,0.00,,2013-05-30 20:22:00,
2013-05-30 16:33:00,80.0,72.0,29.99,ESE,107,11.0,11.0,76,0.00,,,0.00,,2013-05-30 20:33:00,
2013-05-30 16:42:00,80.0,72.0,29.99,ESE,107,11.0,11.0,76,0.00,,,0.00,,2013-05-30 20:42:00,
2013-05-30 16:52:00,81.0,71.0,29.99,ENE,68,10.0,10.0,71,0.00,,,0.00,,2013-05-30 20:52:00,
2013-05-30 17:01:00,80.0,70.0,29.98,SE,127,10.0,10.0,72,0.00,,,0.00,,2013-05-30 21:01:00,
2013-05-30 17:11:00,81.0,71.0,29.98,East,87,10.0,12.0,71,0.00,,,0.00,,2013-05-30 21:11:00,
2013-05-30 17:22:00,81.0,71.0,29.98,East,87,10.0,12.0,71,0.00,,,0.00,,2013-05-30 21:22:00,
2013-05-30 17:33:00,81.0,71.0,29.98,ENE,76,13.0,13.0,71,0.00,,,0.00,,2013-05-30 21:33:00,
2013-05-30 17:43:00,81.0,71.0,29.98,ENE,76,13.0,13.0,71,0.00,,,0.00,,2013-05-30 21:43:00,
2013-05-30 17:53:00,80.0,70.0,29.98,East,91,9.0,11.0,72,0.00,,,0.00,,2013-05-30 21:53:00,
2013-05-30 18:02:00,80.0,71.0,29.98,SE,138,8.0,14.0,74,0.00,,,0.00,,2013-05-30 22:02:00,
2013-05-30 18:12:00,80.0,71.0,29.98,SE,138,8.0,14.0,74,0.00,,,0.00,,2013-05-30 22:12:00,
2013-05-30 18:23:00,77.0,71.0,29.98,East,94,9.0,9.0,83,0.20,,,0.00,,2013-05-30 22:23:00,
2013-05-30 18:33:00,78.0,71.0,29.98,ENE,66,9.0,9.0,79,0.20,,,0.00,,2013-05-30 22:33:00,
2013-05-30 18:42:00,79.0,72.0,29.98,ESE,105,8.0,8.0,79,0.20,,,0.00,,2013-05-30 22:42:00,
2013-05-30 18:52:00,79.0,72.0,29.98,ESE,105,8.0,8.0,79,0.20,,,0.00,,2013-05-30 22:52:00,
2013-05-30 19:02:00,79.0,71.0,29.99,East,90,9.0,11.0,77,0.20,,,0.00,,2013-05-30 23:02:00,
2013-05-30 19:11:00,79.0,71.0,29.99,East,90,9.0,11.0,77,0.20,,,0.00,,2013-05-30 23:11:00,
2013-05-30 19:22:00,78.0,72.0,29.99,SE,125,8.0,12.0,82,0.00,,,0.00,,2013-05-30 23:22:00,
2013-05-30 19:32:00,79.0,72.0,30.00,SE,124,10.0,10.0,78,0.00,,,0.00,,2013-05-30 23:32:00,
2013-05-30 19:41:00,79.0,72.0,30.00,SE,124,10.0,10.0,78,0.00,,,0.00,,2013-05-30 23:41:00,
2013-05-30 19:52:00,78.0,72.0,30.00,SE,138,7.0,7.0,81,0.00,,,0.00,,2013-05-30 23:52:00,
2013-05-30 20:01:00,78.0,71.0,30.01,ESE,120,5.0,7.0,80,0.00,,,0.00,,2013-05-31 00:01:00,
2013-05-30 20:11:00,78.0,71.0,30.01,ESE,120,5.0,7.0,80,0.00,,,0.00,,2013-05-31 00:11:00,
2013-05-30 20:22:00,78.0,71.0,30.01,ESE,118,6.0,11.0,79,0.00,,,0.00,,2013-05-31 00:22:00,
2013-05-30 20:32:00,78.0,70.0,30.01,ENE,63,8.0,8.0,77,0.00,,,0.00,,2013-05-31 00:32:00,
2013-05-30 20:42:00,78.0,70.0,30.01,ESE,103,8.0,8.0,76,0.00,,,0.00,,2013-05-31 00:42:00,
2013-05-30 20:52:00,78.0,70.0,30.01,ESE,103,8.0,8.0,76,0.00,,,0.00,,2013-05-31 00:52:00,
2013-05-30 21:01:00,78.0,69.0,30.01,ENE,70,10.0,12.0,75,0.00,,,0.00,,2013-05-31 01:01:00,
2013-05-30 21:12:00,78.0,69.0,30.01,ENE,70,10.0,12.0,75,0.00,,,0.00,,2013-05-31 01:12:00,
2013-05-30 21:21:00,78.0,69.0,30.02,ESE,103,6.0,6.0,74,0.00,,,0.00,,2013-05-31 01:21:00,
2013-05-30 21:32:00,78.0,70.0,30.02,SE,132,6.0,6.0,76,0.00,,,0.00,,2013-05-31 01:32:00,
2013-05-30 21:42:00,78.0,70.0,30.03,ESE,113,10.0,16.0,77,0.00,,,0.00,,2013-05-31 01:42:00,
2013-05-30 21:52:00,78.0,70.0,30.03,ESE,113,10.0,16.0,77,0.00,,,0.00,,2013-05-31 01:52:00,
2013-05-30 22:02:00,78.0,70.0,30.03,ESE,113,10.0,16.0,77,0.00,,,0.00,,2013-05-31 02:02:00,
2013-05-30 22:11:00,78.0,70.0,30.03,ESE,113,10.0,16.0,77,0.00,,,0.00,,2013-05-31 02:11:00,
2013-05-30 22:22:00,78.0,71.0,30.03,ESE,111,8.0,8.0,80,0.00,,,0.00,,2013-05-31 02:22:00,
2013-05-30 22:32:00,76.0,70.0,30.03,ESE,118,10.0,11.0,83,0.00,,,0.00,,2013-05-31 02:32:00,
2013-05-30 22:42:00,76.0,70.0,30.03,ESE,118,10.0,11.0,83,0.00,,,0.00,,2013-05-31 02:42:00,
2013-05-30 22:52:00,75.0,71.0,30.03,SE,145,7.0,7.0,86,0.00,,,0.00,,2013-05-31 02:52:00,
2013-05-30 23:01:00,77.0,72.0,30.03,ESE,117,7.0,8.0,84,0.00,,,0.00,,2013-05-31 03:01:00,
2013-05-30 23:11:00,77.0,72.0,30.03,ESE,117,7.0,8.0,84,0.00,,,0.00,,2013-05-31 03:11:00,
2013-05-30 23:21:00,77.0,72.0,30.03,SE,134,8.0,8.0,84,0.00,,,0.00,,2013-05-31 03:21:00,
2013-05-30 23:33:00,78.0,72.0,30.03,SSE,158,8.0,8.0,82,0.10,,,0.00,,2013-05-31 03:33:00,
2013-05-30 23:43:00,78.0,72.0,30.03,SSE,158,8.0,8.0,82,0.10,,,0.00,,2013-05-31 03:43:00,
2013-05-30 23:53:00,77.0,71.0,30.03,ESE,113,7.0,7.0,82,0.10,,,0.00,,2013-05-31 03:53:00,